Sovereign — 9HUE9 — position and weather

sailwx.info

Track history (hours):
 
Tides and Currents Weather Stations Pressure Air Temp Water Temp Dewpoint Dewpoint Depression Visibility Wind Speed Wind Dir Waves Ship Positions

Sovereign

Last reported at 2018-May-23 19:35 UTC. Time now 2018-May-24 09:48 UTC.
Position N 40°40' E 013°35'.

Length 269 m; draft 7.8 m.

Type: Passenger vessel. MMSI: 249539000.

Date/timePositionNaut miles runAvg speedWind from/ knotsBaromVisibWave heightAir tempDewpointWater temp
2018-May-23 19:35N 40°40' E 013°35'314.8
2018-May-23 19:22N 40°39' E 013°40'814.8
2018-May-23 18:48N 40°39' E 013°51'414.9
2018-May-23 18:30N 40°39' E 013°57'714.5
2018-May-23 18:01N 40°40' E 014°06'815.5
2018-May-23 17:30N 40°45' E 014°13'510.3
2018-May-23 17:00N 40°50' E 014°16'0 0.3
2018-May-23 16:22N 40°50' E 014°16'0 0.0
2018-May-23 15:34N 40°50' E 014°16'0 0.0
2018-May-23 15:22N 40°50' E 014°16'0 0.0
2018-May-23 14:49N 40°50' E 014°16'0 0.0
2018-May-23 14:22N 40°50' E 014°16'0 0.0
2018-May-23 13:55N 40°50' E 014°16'0 0.0
2018-May-23 13:28N 40°50' E 014°16'0 0.0
2018-May-23 12:58N 40°50' E 014°16'0 0.0
2018-May-23 12:25N 40°50' E 014°16'0 0.0
2018-May-23 11:58N 40°50' E 014°16'0 0.0
2018-May-23 11:28N 40°50' E 014°16'0 0.0
2018-May-23 10:55N 40°50' E 014°16'0 0.0
2018-May-23 10:28N 40°50' E 014°16'0 0.0
2018-May-23 09:58N 40°50' E 014°16'0 0.0
2018-May-23 09:28N 40°50' E 014°16'0 0.0
2018-May-23 08:58N 40°50' E 014°16'0 0.0
2018-May-23 08:28N 40°50' E 014°16'0 0.0
2018-May-23 07:58N 40°50' E 014°16'0 0.0
2018-May-23 07:28N 40°50' E 014°16'0 0.0
2018-May-23 06:58N 40°50' E 014°16'0 0.0
2018-May-23 06:30N 40°50' E 014°16'1 2.6
2018-May-23 06:00N 40°49' E 014°17'5 9.7
2018-May-23 05:30N 40°45' E 014°13'611.4
2018-May-23 05:00N 40°42' E 014°08'713.0
2018-May-23 04:30N 40°38' E 014°01'713.6
2018-May-23 04:00N 40°34' E 013°54'713.5
2018-May-23 03:30N 40°30' E 013°47'713.0
2018-May-23 03:00N 40°30' E 013°38'713.5
2018-May-23 02:29N 40°32' E 013°29'51015.3
2018-May-21 17:02N 41°16' E 002°17'215.9
2018-May-21 16:53N 41°16' E 002°13'411.3
2018-May-21 16:30N 41°20' E 002°10'2 3.6
2018-May-21 15:58N 41°22' E 002°11'0 0.0
2018-May-21 15:28N 41°22' E 002°11'0 0.0
2018-May-21 14:58N 41°22' E 002°11'0 0.0
2018-May-21 14:28N 41°22' E 002°11'0 0.0
2018-May-21 14:00N 41°22' E 002°11'0 0.0
2018-May-21 13:30N 41°22' E 002°11'0 0.0
2018-May-21 13:00N 41°22' E 002°11'0 0.0
2018-May-21 12:30N 41°22' E 002°11'0 0.0
2018-May-21 12:00N 41°22' E 002°11'0 0.0
2018-May-21 11:30N 41°22' E 002°11'0 0.0
2018-May-21 11:00N 41°22' E 002°11'0 0.0
2018-May-21 10:30N 41°22' E 002°11'0 0.0
2018-May-21 10:00N 41°22' E 002°11'0 0.0
2018-May-21 09:30N 41°22' E 002°11'0 0.0
2018-May-21 09:00N 41°22' E 002°11'0 0.0
2018-May-21 08:30N 41°22' E 002°11'0 0.0
2018-May-21 08:00N 41°22' E 002°11'0 0.0
2018-May-21 07:30N 41°22' E 002°11'0 0.0
2018-May-21 07:00N 41°22' E 002°11'0 0.0
2018-May-21 06:30N 41°22' E 002°11'0 0.0
2018-May-21 06:00N 41°22' E 002°11'0 0.1
2018-May-21 05:30N 41°22' E 002°11'3 5.6
2018-May-21 05:01N 41°19' E 002°10'4 7.7
2018-May-21 04:31N 41°16' E 002°14'612.9
2018-May-21 04:00N 41°16' E 002°23'612.2
2018-May-21 03:30N 41°16' E 002°31'612.2
2018-May-21 02:59N 41°17' E 002°39'913.0
2018-May-21 02:16N 41°23' E 002°49'412.8
2018-May-21 01:59N 41°25' E 002°53'612.7
2018-May-21 01:30N 41°28' E 002°60'612.5
2018-May-21 01:00N 41°32' E 003°07'812.8
2018-May-21 00:22N 41°37' E 003°16'9612.8
2018-May-20 16:53N 43°08' E 003°56'614.9
2018-May-20 16:30N 43°14' E 003°54'815.8
2018-May-20 16:00N 43°20' E 003°48'510.7
2018-May-20 15:31N 43°24' E 003°43'0 0.4
2018-May-20 14:59N 43°24' E 003°43'0 0.0
2018-May-20 14:29N 43°24' E 003°43'0 0.0
2018-May-20 13:53N 43°24' E 003°43'0 0.0
2018-May-20 13:29N 43°24' E 003°43'0 0.0
2018-May-20 12:59N 43°24' E 003°43'0 0.0
2018-May-20 12:29N 43°24' E 003°43'0 0.0
2018-May-20 11:59N 43°24' E 003°43'0 0.0
2018-May-20 11:29N 43°24' E 003°43'0 0.0
2018-May-20 10:53N 43°24' E 003°43'0 0.0
2018-May-20 10:29N 43°24' E 003°43'0 0.0
2018-May-20 09:59N 43°24' E 003°43'0 0.0
2018-May-20 09:29N 43°24' E 003°43'0 0.0
2018-May-20 08:59N 43°24' E 003°43'0 0.0
2018-May-20 08:29N 43°24' E 003°43'0 0.0
2018-May-20 07:59N 43°24' E 003°43'0 0.0
2018-May-20 07:26N 43°24' E 003°43'0 0.0
2018-May-20 06:59N 43°24' E 003°43'0 0.0
2018-May-20 06:29N 43°24' E 003°43'0 0.0
2018-May-20 05:59N 43°24' E 003°43'0 0.0
2018-May-20 05:29N 43°24' E 003°43'0 0.5
2018-May-20 05:00N 43°24' E 003°43'3 6.3
2018-May-20 04:30N 43°22' E 003°47'611.1
2018-May-20 04:00N 43°18' E 003°51'612.3
2018-May-20 03:30N 43°13' E 003°56'612.1
2018-May-20 03:00N 43°10' E 004°04'612.7
2018-May-20 02:29N 43°08' E 004°12'1012.4
2018-May-20 01:40N 43°06' E 004°26'212.3
2018-May-20 01:30N 43°05' E 004°28'612.6
2018-May-20 01:00N 43°04' E 004°37'612.6
2018-May-20 00:30N 43°02' E 004°45'612.6
2018-May-20 00:00N 43°00' E 004°53'612.5
2018-May-19 23:30N 42°59' E 005°02'8714.9
2018-May-19 17:38N 43°07' E 007°00'216.8
2018-May-19 17:30N 43°08' E 007°02'816.4
2018-May-19 17:00N 43°14' E 007°10'815.8
2018-May-19 16:30N 43°21' E 007°16'816.0
2018-May-19 16:00N 43°29' E 007°17'815.8
2018-May-19 15:30N 43°37' E 007°18'5 6.0
2018-May-19 14:44N 43°41' E 007°19'0 0.0
2018-May-19 14:29N 43°41' E 007°19'0 0.0
2018-May-19 13:59N 43°41' E 007°19'0 0.0
2018-May-19 13:29N 43°41' E 007°19'0 0.0
2018-May-19 12:50N 43°41' E 007°19'0 0.0
2018-May-19 12:29N 43°41' E 007°19'0 0.0
2018-May-19 11:59N 43°41' E 007°19'0 0.0
2018-May-19 11:17N 43°41' E 007°19'0 0.0
2018-May-19 10:50N 43°41' E 007°19'0 0.0
2018-May-19 10:23N 43°41' E 007°19'0 0.0
2018-May-19 09:53N 43°41' E 007°19'0 0.0
2018-May-19 09:23N 43°41' E 007°19'0 0.0
2018-May-19 08:53N 43°41' E 007°19'0 0.0
2018-May-19 08:23N 43°41' E 007°19'0 0.0
2018-May-19 07:50N 43°41' E 007°19'0 0.0
2018-May-19 07:26N 43°41' E 007°19'0 0.0
2018-May-19 06:56N 43°41' E 007°19'0 0.0
2018-May-19 06:26N 43°41' E 007°19'0 0.1
2018-May-19 05:20N 43°41' E 007°19'2 6.0
2018-May-19 05:00N 43°39' E 007°20'5 9.5
2018-May-19 04:30N 43°39' E 007°27'510.4
2018-May-19 04:00N 43°39' E 007°34'1012.8
2018-May-19 03:13N 43°38' E 007°48'313.0
2018-May-19 02:59N 43°38' E 007°52'612.7
2018-May-19 02:30N 43°37' E 008°01'612.1
2018-May-19 01:59N 43°37' E 008°09'612.0
2018-May-19 01:30N 43°37' E 008°17'612.0
2018-May-19 01:00N 43°36' E 008°25'611.8
2018-May-19 00:30N 43°36' E 008°34'612.1
2018-May-19 00:01N 43°36' E 008°42'612.2
2018-May-18 23:30N 43°35' E 008°50'713.3
2018-May-18 23:00N 43°35' E 008°59'713.3
2018-May-18 22:30N 43°34' E 009°09'713.3
2018-May-18 22:01N 43°34' E 009°18'713.4
2018-May-18 21:30N 43°34' E 009°27'713.7
2018-May-18 21:00N 43°33' E 009°36'713.3
2018-May-18 20:30N 43°33' E 009°46'713.1
2018-May-18 20:00N 43°32' E 009°55'713.2
2018-May-18 19:30N 43°30' E 010°03'612.9
2018-May-18 19:00N 43°31' E 010°12'4 9.0
2018-May-18 18:30N 43°33' E 010°18'0 0.6
2018-May-18 17:59N 43°34' E 010°18'0 0.0
2018-May-18 17:29N 43°34' E 010°18'0 0.0
2018-May-18 16:59N 43°34' E 010°18'0 0.0
2018-May-18 16:29N 43°34' E 010°18'0 0.0
2018-May-18 15:59N 43°34' E 010°18'0 0.0
2018-May-18 15:29N 43°34' E 010°18'0 0.0
2018-May-18 14:56N 43°34' E 010°18'0 0.0
2018-May-18 14:29N 43°34' E 010°18'0 0.0
2018-May-18 13:59N 43°34' E 010°18'0 0.0
2018-May-18 13:29N 43°34' E 010°18'0 0.0
2018-May-18 12:59N 43°34' E 010°18'0 0.0
2018-May-18 12:29N 43°34' E 010°18'0 0.0
2018-May-18 11:59N 43°34' E 010°18'0 0.0
2018-May-18 11:29N 43°34' E 010°18'0 0.0
2018-May-18 10:59N 43°34' E 010°18'0 0.0
2018-May-18 10:29N 43°34' E 010°18'0 0.0
2018-May-18 09:59N 43°34' E 010°18'0 0.0
2018-May-18 09:29N 43°34' E 010°18'0 0.0
2018-May-18 08:59N 43°34' E 010°18'0 0.0
2018-May-18 08:26N 43°34' E 010°18'0 0.0
2018-May-18 07:59N 43°34' E 010°18'0 0.0
2018-May-18 07:29N 43°34' E 010°18'0 0.0
2018-May-18 06:59N 43°34' E 010°18'0 0.0
2018-May-18 06:29N 43°34' E 010°18'0 0.0
2018-May-18 05:59N 43°34' E 010°18'1 2.0
2018-May-18 05:30N 43°33' E 010°17'2 4.4
2018-May-18 05:00N 43°31' E 010°15'3 6.3
2018-May-18 04:30N 43°28' E 010°13'510.1
2018-May-18 04:00N 43°23' E 010°11'612.9
2018-May-18 03:30N 43°17' E 010°10'612.7
2018-May-18 03:00N 43°11' E 010°08'612.5
2018-May-18 02:30N 43°05' E 010°06'612.7
2018-May-18 02:00N 42°59' E 010°04'813.6
2018-May-18 01:25N 42°51' E 010°02'513.5
2018-May-18 01:00N 42°45' E 010°01'813.4
2018-May-18 00:22N 42°39' E 010°08'513.3
2018-May-18 00:00N 42°35' E 010°13'713.4
2018-May-17 23:29N 42°30' E 010°19'2213.4
2018-May-17 21:50N 42°13' E 010°39'169 6.3
2018-May-16 19:03N 40°38' E 013°45'315.8
2018-May-16 18:51N 40°38' E 013°49'815.7
2018-May-16 18:23N 40°38' E 013°59'615.7
2018-May-16 18:01N 40°40' E 014°07'816.0
2018-May-16 17:30N 40°46' E 014°14'4 8.0
2018-May-16 16:57N 40°50' E 014°16'0 0.0
2018-May-16 16:27N 40°50' E 014°16'0 0.0
2018-May-16 15:57N 40°50' E 014°16'0 0.0
2018-May-16 15:27N 40°50' E 014°16'0 0.0
2018-May-16 14:57N 40°50' E 014°16'0 0.0
2018-May-16 14:27N 40°50' E 014°16'0 0.0
2018-May-16 13:57N 40°50' E 014°16'0 0.0
2018-May-16 13:27N 40°50' E 014°16'0 0.0
2018-May-16 12:57N 40°50' E 014°16'0 0.0
2018-May-16 12:21N 40°50' E 014°16'0 0.0
2018-May-16 11:57N 40°50' E 014°16'0 0.0
2018-May-16 11:27N 40°50' E 014°16'0 0.0
2018-May-16 10:57N 40°50' E 014°16'0 0.0
2018-May-16 10:27N 40°50' E 014°16'0 0.0
2018-May-16 09:57N 40°50' E 014°16'0 0.0
2018-May-16 09:27N 40°50' E 014°16'0 0.0
2018-May-16 08:57N 40°50' E 014°16'0 0.0
2018-May-16 08:27N 40°50' E 014°16'0 0.0
2018-May-16 07:57N 40°50' E 014°16'0 0.0
2018-May-16 07:15N 40°50' E 014°16'0 0.0
2018-May-16 06:57N 40°50' E 014°16'0 0.0
2018-May-16 06:30N 40°50' E 014°16'1 2.2
2018-May-16 06:00N 40°50' E 014°17'510.1
2018-May-16 05:31N 40°45' E 014°14'612.9
2018-May-16 05:00N 40°41' E 014°07'713.2
2018-May-16 04:30N 40°36' E 014°01'713.6
2018-May-16 04:00N 40°33' E 013°53'713.5
2018-May-16 03:30N 40°29' E 013°46'712.7
2018-May-16 02:58N 40°30' E 013°37'51015.5
2018-May-14 18:03N 41°12' E 002°25'214.7
2018-May-14 17:54N 41°12' E 002°23'614.8
2018-May-14 17:31N 41°13' E 002°15'612.6
2018-May-14 17:01N 41°18' E 002°10'4 7.0
2018-May-14 16:30N 41°21' E 002°11'0 0.2
2018-May-14 15:59N 41°22' E 002°11'0 0.0
2018-May-14 15:29N 41°22' E 002°11'0 0.0
2018-May-14 14:59N 41°22' E 002°11'0 0.0
2018-May-14 14:29N 41°22' E 002°11'0 0.0
2018-May-14 13:59N 41°22' E 002°11'0 0.0
2018-May-14 13:29N 41°22' E 002°11'0 0.0
2018-May-14 12:59N 41°22' E 002°11'0 0.0
2018-May-14 12:29N 41°22' E 002°11'0 0.0
2018-May-14 11:53N 41°22' E 002°11'0 0.0
2018-May-14 11:29N 41°22' E 002°11'0 0.0
2018-May-14 10:56N 41°22' E 002°11'0 0.0
2018-May-14 10:29N 41°22' E 002°11'0 0.0
2018-May-14 09:59N 41°22' E 002°11'0 0.0
2018-May-14 09:23N 41°22' E 002°11'0 0.0
2018-May-14 08:59N 41°22' E 002°11'0 0.0
2018-May-14 08:29N 41°22' E 002°11'0 0.0
2018-May-14 07:59N 41°22' E 002°11'0 0.0
2018-May-14 07:29N 41°22' E 002°11'0 0.0
2018-May-14 06:59N 41°22' E 002°11'0 0.0
2018-May-14 06:26N 41°22' E 002°11'0 0.0
2018-May-14 05:59N 41°22' E 002°11'0 0.5
2018-May-14 05:30N 41°22' E 002°11'3 5.6
2018-May-14 05:01N 41°19' E 002°10'510.2
2018-May-14 04:30N 41°16' E 002°16'713.5
2018-May-14 04:00N 41°16' E 002°25'  
Track history (hours):
 
Tides and Currents Weather Stations Pressure Air Temp Water Temp Dewpoint Dewpoint Depression Visibility Wind Speed Wind Dir Waves Ship Positions

Sovereign

Last reported at 2018-May-23 19:35 UTC. Time now 2018-May-24 09:48 UTC.
Position N 40°40' E 013°35'.

Length 269 m; draft 7.8 m.

Type: Passenger vessel. MMSI: 249539000.

Date/timePositionNaut miles runAvg speedWind from/ knotsBaromVisibWave heightAir tempDewpointWater temp
2018-May-23 19:35N 40°40' E 013°35'314.8
2018-May-23 19:22N 40°39' E 013°40'814.8
2018-May-23 18:48N 40°39' E 013°51'414.9
2018-May-23 18:30N 40°39' E 013°57'714.5
2018-May-23 18:01N 40°40' E 014°06'815.5
2018-May-23 17:30N 40°45' E 014°13'510.3
2018-May-23 17:00N 40°50' E 014°16'0 0.3
2018-May-23 16:22N 40°50' E 014°16'0 0.0
2018-May-23 15:34N 40°50' E 014°16'0 0.0
2018-May-23 15:22N 40°50' E 014°16'0 0.0
2018-May-23 14:49N 40°50' E 014°16'0 0.0
2018-May-23 14:22N 40°50' E 014°16'0 0.0
2018-May-23 13:55N 40°50' E 014°16'0 0.0
2018-May-23 13:28N 40°50' E 014°16'0 0.0
2018-May-23 12:58N 40°50' E 014°16'0 0.0
2018-May-23 12:25N 40°50' E 014°16'0 0.0
2018-May-23 11:58N 40°50' E 014°16'0 0.0
2018-May-23 11:28N 40°50' E 014°16'0 0.0
2018-May-23 10:55N 40°50' E 014°16'0 0.0
2018-May-23 10:28N 40°50' E 014°16'0 0.0
2018-May-23 09:58N 40°50' E 014°16'0 0.0
2018-May-23 09:28N 40°50' E 014°16'0 0.0
2018-May-23 08:58N 40°50' E 014°16'0 0.0
2018-May-23 08:28N 40°50' E 014°16'0 0.0
2018-May-23 07:58N 40°50' E 014°16'0 0.0
2018-May-23 07:28N 40°50' E 014°16'0 0.0
2018-May-23 06:58N 40°50' E 014°16'0 0.0
2018-May-23 06:30N 40°50' E 014°16'1 2.6
2018-May-23 06:00N 40°49' E 014°17'5 9.7
2018-May-23 05:30N 40°45' E 014°13'611.4
2018-May-23 05:00N 40°42' E 014°08'713.0
2018-May-23 04:30N 40°38' E 014°01'713.6
2018-May-23 04:00N 40°34' E 013°54'713.5
2018-May-23 03:30N 40°30' E 013°47'713.0
2018-May-23 03:00N 40°30' E 013°38'713.5
2018-May-23 02:29N 40°32' E 013°29'51015.3
2018-May-21 17:02N 41°16' E 002°17'215.9
2018-May-21 16:53N 41°16' E 002°13'411.3
2018-May-21 16:30N 41°20' E 002°10'2 3.6
2018-May-21 15:58N 41°22' E 002°11'0 0.0
2018-May-21 15:28N 41°22' E 002°11'0 0.0
2018-May-21 14:58N 41°22' E 002°11'0 0.0
2018-May-21 14:28N 41°22' E 002°11'0 0.0
2018-May-21 14:00N 41°22' E 002°11'0 0.0
2018-May-21 13:30N 41°22' E 002°11'0 0.0
2018-May-21 13:00N 41°22' E 002°11'0 0.0
2018-May-21 12:30N 41°22' E 002°11'0 0.0
2018-May-21 12:00N 41°22' E 002°11'0 0.0
2018-May-21 11:30N 41°22' E 002°11'0 0.0
2018-May-21 11:00N 41°22' E 002°11'0 0.0
2018-May-21 10:30N 41°22' E 002°11'0 0.0
2018-May-21 10:00N 41°22' E 002°11'0 0.0
2018-May-21 09:30N 41°22' E 002°11'0 0.0
2018-May-21 09:00N 41°22' E 002°11'0 0.0
2018-May-21 08:30N 41°22' E 002°11'0 0.0
2018-May-21 08:00N 41°22' E 002°11'0 0.0
2018-May-21 07:30N 41°22' E 002°11'0 0.0
2018-May-21 07:00N 41°22' E 002°11'0 0.0
2018-May-21 06:30N 41°22' E 002°11'0 0.0
2018-May-21 06:00N 41°22' E 002°11'0 0.1
2018-May-21 05:30N 41°22' E 002°11'3 5.6
2018-May-21 05:01N 41°19' E 002°10'4 7.7
2018-May-21 04:31N 41°16' E 002°14'612.9
2018-May-21 04:00N 41°16' E 002°23'612.2
2018-May-21 03:30N 41°16' E 002°31'612.2
2018-May-21 02:59N 41°17' E 002°39'913.0
2018-May-21 02:16N 41°23' E 002°49'412.8
2018-May-21 01:59N 41°25' E 002°53'612.7
2018-May-21 01:30N 41°28' E 002°60'612.5
2018-May-21 01:00N 41°32' E 003°07'812.8
2018-May-21 00:22N 41°37' E 003°16'9612.8
2018-May-20 16:53N 43°08' E 003°56'614.9
2018-May-20 16:30N 43°14' E 003°54'815.8
2018-May-20 16:00N 43°20' E 003°48'510.7
2018-May-20 15:31N 43°24' E 003°43'0 0.4
2018-May-20 14:59N 43°24' E 003°43'0 0.0
2018-May-20 14:29N 43°24' E 003°43'0 0.0
2018-May-20 13:53N 43°24' E 003°43'0 0.0
2018-May-20 13:29N 43°24' E 003°43'0 0.0
2018-May-20 12:59N 43°24' E 003°43'0 0.0
2018-May-20 12:29N 43°24' E 003°43'0 0.0
2018-May-20 11:59N 43°24' E 003°43'0 0.0
2018-May-20 11:29N 43°24' E 003°43'0 0.0
2018-May-20 10:53N 43°24' E 003°43'0 0.0
2018-May-20 10:29N 43°24' E 003°43'0 0.0
2018-May-20 09:59N 43°24' E 003°43'0 0.0
2018-May-20 09:29N 43°24' E 003°43'0 0.0
2018-May-20 08:59N 43°24' E 003°43'0 0.0
2018-May-20 08:29N 43°24' E 003°43'0 0.0
2018-May-20 07:59N 43°24' E 003°43'0 0.0
2018-May-20 07:26N 43°24' E 003°43'0 0.0
2018-May-20 06:59N 43°24' E 003°43'0 0.0
2018-May-20 06:29N 43°24' E 003°43'0 0.0
2018-May-20 05:59N 43°24' E 003°43'0 0.0
2018-May-20 05:29N 43°24' E 003°43'0 0.5
2018-May-20 05:00N 43°24' E 003°43'3 6.3
2018-May-20 04:30N 43°22' E 003°47'611.1
2018-May-20 04:00N 43°18' E 003°51'612.3
2018-May-20 03:30N 43°13' E 003°56'612.1
2018-May-20 03:00N 43°10' E 004°04'612.7
2018-May-20 02:29N 43°08' E 004°12'1012.4
2018-May-20 01:40N 43°06' E 004°26'212.3
2018-May-20 01:30N 43°05' E 004°28'612.6
2018-May-20 01:00N 43°04' E 004°37'612.6
2018-May-20 00:30N 43°02' E 004°45'612.6
2018-May-20 00:00N 43°00' E 004°53'612.5
2018-May-19 23:30N 42°59' E 005°02'8714.9
2018-May-19 17:38N 43°07' E 007°00'216.8
2018-May-19 17:30N 43°08' E 007°02'816.4
2018-May-19 17:00N 43°14' E 007°10'815.8
2018-May-19 16:30N 43°21' E 007°16'816.0
2018-May-19 16:00N 43°29' E 007°17'815.8
2018-May-19 15:30N 43°37' E 007°18'5 6.0
2018-May-19 14:44N 43°41' E 007°19'0 0.0
2018-May-19 14:29N 43°41' E 007°19'0 0.0
2018-May-19 13:59N 43°41' E 007°19'0 0.0
2018-May-19 13:29N 43°41' E 007°19'0 0.0
2018-May-19 12:50N 43°41' E 007°19'0 0.0
2018-May-19 12:29N 43°41' E 007°19'0 0.0
2018-May-19 11:59N 43°41' E 007°19'0 0.0
2018-May-19 11:17N 43°41' E 007°19'0 0.0
2018-May-19 10:50N 43°41' E 007°19'0 0.0
2018-May-19 10:23N 43°41' E 007°19'0 0.0
2018-May-19 09:53N 43°41' E 007°19'0 0.0
2018-May-19 09:23N 43°41' E 007°19'0 0.0
2018-May-19 08:53N 43°41' E 007°19'0 0.0
2018-May-19 08:23N 43°41' E 007°19'0 0.0
2018-May-19 07:50N 43°41' E 007°19'0 0.0
2018-May-19 07:26N 43°41' E 007°19'0 0.0
2018-May-19 06:56N 43°41' E 007°19'0 0.0
2018-May-19 06:26N 43°41' E 007°19'0 0.1
2018-May-19 05:20N 43°41' E 007°19'2 6.0
2018-May-19 05:00N 43°39' E 007°20'5 9.5
2018-May-19 04:30N 43°39' E 007°27'510.4
2018-May-19 04:00N 43°39' E 007°34'1012.8
2018-May-19 03:13N 43°38' E 007°48'313.0
2018-May-19 02:59N 43°38' E 007°52'612.7
2018-May-19 02:30N 43°37' E 008°01'612.1
2018-May-19 01:59N 43°37' E 008°09'612.0
2018-May-19 01:30N 43°37' E 008°17'612.0
2018-May-19 01:00N 43°36' E 008°25'611.8
2018-May-19 00:30N 43°36' E 008°34'612.1
2018-May-19 00:01N 43°36' E 008°42'612.2
2018-May-18 23:30N 43°35' E 008°50'713.3
2018-May-18 23:00N 43°35' E 008°59'713.3
2018-May-18 22:30N 43°34' E 009°09'713.3
2018-May-18 22:01N 43°34' E 009°18'713.4
2018-May-18 21:30N 43°34' E 009°27'713.7
2018-May-18 21:00N 43°33' E 009°36'713.3
2018-May-18 20:30N 43°33' E 009°46'713.1
2018-May-18 20:00N 43°32' E 009°55'713.2
2018-May-18 19:30N 43°30' E 010°03'612.9
2018-May-18 19:00N 43°31' E 010°12'4 9.0
2018-May-18 18:30N 43°33' E 010°18'0 0.6
2018-May-18 17:59N 43°34' E 010°18'0 0.0
2018-May-18 17:29N 43°34' E 010°18'0 0.0
2018-May-18 16:59N 43°34' E 010°18'0 0.0
2018-May-18 16:29N 43°34' E 010°18'0 0.0
2018-May-18 15:59N 43°34' E 010°18'0 0.0
2018-May-18 15:29N 43°34' E 010°18'0 0.0
2018-May-18 14:56N 43°34' E 010°18'0 0.0
2018-May-18 14:29N 43°34' E 010°18'0 0.0
2018-May-18 13:59N 43°34' E 010°18'0 0.0
2018-May-18 13:29N 43°34' E 010°18'0 0.0
2018-May-18 12:59N 43°34' E 010°18'0 0.0
2018-May-18 12:29N 43°34' E 010°18'0 0.0
2018-May-18 11:59N 43°34' E 010°18'0 0.0
2018-May-18 11:29N 43°34' E 010°18'0 0.0
2018-May-18 10:59N 43°34' E 010°18'0 0.0
2018-May-18 10:29N 43°34' E 010°18'0 0.0
2018-May-18 09:59N 43°34' E 010°18'0 0.0
2018-May-18 09:29N 43°34' E 010°18'0 0.0
2018-May-18 08:59N 43°34' E 010°18'0 0.0
2018-May-18 08:26N 43°34' E 010°18'0 0.0
2018-May-18 07:59N 43°34' E 010°18'0 0.0
2018-May-18 07:29N 43°34' E 010°18'0 0.0
2018-May-18 06:59N 43°34' E 010°18'0 0.0
2018-May-18 06:29N 43°34' E 010°18'0 0.0
2018-May-18 05:59N 43°34' E 010°18'1 2.0
2018-May-18 05:30N 43°33' E 010°17'2 4.4
2018-May-18 05:00N 43°31' E 010°15'3 6.3
2018-May-18 04:30N 43°28' E 010°13'510.1
2018-May-18 04:00N 43°23' E 010°11'612.9
2018-May-18 03:30N 43°17' E 010°10'612.7
2018-May-18 03:00N 43°11' E 010°08'612.5
2018-May-18 02:30N 43°05' E 010°06'612.7
2018-May-18 02:00N 42°59' E 010°04'813.6
2018-May-18 01:25N 42°51' E 010°02'513.5
2018-May-18 01:00N 42°45' E 010°01'813.4
2018-May-18 00:22N 42°39' E 010°08'513.3
2018-May-18 00:00N 42°35' E 010°13'713.4
2018-May-17 23:29N 42°30' E 010°19'2213.4
2018-May-17 21:50N 42°13' E 010°39'169 6.3
2018-May-16 19:03N 40°38' E 013°45'315.8
2018-May-16 18:51N 40°38' E 013°49'815.7
2018-May-16 18:23N 40°38' E 013°59'615.7
2018-May-16 18:01N 40°40' E 014°07'816.0
2018-May-16 17:30N 40°46' E 014°14'4 8.0
2018-May-16 16:57N 40°50' E 014°16'0 0.0
2018-May-16 16:27N 40°50' E 014°16'0 0.0
2018-May-16 15:57N 40°50' E 014°16'0 0.0
2018-May-16 15:27N 40°50' E 014°16'0 0.0
2018-May-16 14:57N 40°50' E 014°16'0 0.0
2018-May-16 14:27N 40°50' E 014°16'0 0.0
2018-May-16 13:57N 40°50' E 014°16'0 0.0
2018-May-16 13:27N 40°50' E 014°16'0 0.0
2018-May-16 12:57N 40°50' E 014°16'0 0.0
2018-May-16 12:21N 40°50' E 014°16'0 0.0
2018-May-16 11:57N 40°50' E 014°16'0 0.0
2018-May-16 11:27N 40°50' E 014°16'0 0.0
2018-May-16 10:57N 40°50' E 014°16'0 0.0
2018-May-16 10:27N 40°50' E 014°16'0 0.0
2018-May-16 09:57N 40°50' E 014°16'0 0.0
2018-May-16 09:27N 40°50' E 014°16'0 0.0
2018-May-16 08:57N 40°50' E 014°16'0 0.0
2018-May-16 08:27N 40°50' E 014°16'0 0.0
2018-May-16 07:57N 40°50' E 014°16'0 0.0
2018-May-16 07:15N 40°50' E 014°16'0 0.0
2018-May-16 06:57N 40°50' E 014°16'0 0.0
2018-May-16 06:30N 40°50' E 014°16'1 2.2
2018-May-16 06:00N 40°50' E 014°17'510.1
2018-May-16 05:31N 40°45' E 014°14'612.9
2018-May-16 05:00N 40°41' E 014°07'713.2
2018-May-16 04:30N 40°36' E 014°01'713.6
2018-May-16 04:00N 40°33' E 013°53'713.5
2018-May-16 03:30N 40°29' E 013°46'712.7
2018-May-16 02:58N 40°30' E 013°37'51015.5
2018-May-14 18:03N 41°12' E 002°25'214.7
2018-May-14 17:54N 41°12' E 002°23'614.8
2018-May-14 17:31N 41°13' E 002°15'612.6
2018-May-14 17:01N 41°18' E 002°10'4 7.0
2018-May-14 16:30N 41°21' E 002°11'0 0.2
2018-May-14 15:59N 41°22' E 002°11'0 0.0
2018-May-14 15:29N 41°22' E 002°11'0 0.0
2018-May-14 14:59N 41°22' E 002°11'0 0.0
2018-May-14 14:29N 41°22' E 002°11'0 0.0
2018-May-14 13:59N 41°22' E 002°11'0 0.0
2018-May-14 13:29N 41°22' E 002°11'0 0.0
2018-May-14 12:59N 41°22' E 002°11'0 0.0
2018-May-14 12:29N 41°22' E 002°11'0 0.0
2018-May-14 11:53N 41°22' E 002°11'0 0.0
2018-May-14 11:29N 41°22' E 002°11'0 0.0
2018-May-14 10:56N 41°22' E 002°11'0 0.0
2018-May-14 10:29N 41°22' E 002°11'0 0.0
2018-May-14 09:59N 41°22' E 002°11'0 0.0
2018-May-14 09:23N 41°22' E 002°11'0 0.0
2018-May-14 08:59N 41°22' E 002°11'0 0.0
2018-May-14 08:29N 41°22' E 002°11'0 0.0
2018-May-14 07:59N 41°22' E 002°11'0 0.0
2018-May-14 07:29N 41°22' E 002°11'0 0.0
2018-May-14 06:59N 41°22' E 002°11'0 0.0
2018-May-14 06:26N 41°22' E 002°11'0 0.0
2018-May-14 05:59N 41°22' E 002°11'0 0.5
2018-May-14 05:30N 41°22' E 002°11'3 5.6
2018-May-14 05:01N 41°19' E 002°10'510.2
2018-May-14 04:30N 41°16' E 002°16'713.5
2018-May-14 04:00N 41°16' E 002°25'  

Dump ship's entire track history